sensor_id;sensor_type;location;lat;lon;timestamp;temperature;humidity
21830;DHT22;11077;50.264;6.798;2022-08-01T00:02:20;18.50;99.90
21830;DHT22;11077;50.264;6.798;2022-08-01T00:04:47;18.50;99.90
21830;DHT22;11077;50.264;6.798;2022-08-01T00:07:14;18.40;99.90
21830;DHT22;11077;50.264;6.798;2022-08-01T00:09:43;18.40;99.90
21830;DHT22;11077;50.264;6.798;2022-08-01T00:12:11;18.30;99.90
21830;DHT22;11077;50.264;6.798;2022-08-01T00:14:38;18.30;99.90
21830;DHT22;11077;50.264;6.798;2022-08-01T00:17:06;18.30;99.90
21830;DHT22;11077;50.264;6.798;2022-08-01T00:19:33;18.20;99.90
21830;DHT22;11077;50.264;6.798;2022-08-01T00:22:01;18.20;99.90
21830;DHT22;11077;50.264;6.798;2022-08-01T00:24:28;18.20;99.90
21830;DHT22;11077;50.264;6.798;2022-08-01T00:26:57;18.20;99.90
21830;DHT22;11077;50.264;6.798;2022-08-01T00:29:24;18.20;99.90
21830;DHT22;11077;50.264;6.798;2022-08-01T00:31:51;18.20;99.90
21830;DHT22;11077;50.264;6.798;2022-08-01T00:34:19;18.10;99.90
21830;DHT22;11077;50.264;6.798;2022-08-01T00:36:46;18.10;99.90
21830;DHT22;11077;50.264;6.798;2022-08-01T00:39:13;18.10;99.90
21830;DHT22;11077;50.264;6.798;2022-08-01T00:41:41;18.00;99.90
21830;DHT22;11077;50.264;6.798;2022-08-01T00:44:10;18.00;99.90
21830;DHT22;11077;50.264;6.798;2022-08-01T00:46:37;17.90;99.90
21830;DHT22;11077;50.264;6.798;2022-08-01T00:49:04;17.90;99.90
21830;DHT22;11077;50.264;6.798;2022-08-01T00:51:31;17.90;99.90
21830;DHT22;11077;50.264;6.798;2022-08-01T00:53:59;17.90;99.90
21830;DHT22;11077;50.264;6.798;2022-08-01T00:56:27;17.80;99.90
21830;DHT22;11077;50.264;6.798;2022-08-01T00:58:55;17.80;99.90
21830;DHT22;11077;50.264;6.798;2022-08-01T01:01:24;17.80;99.90
21830;DHT22;11077;50.264;6.798;2022-08-01T01:03:52;17.80;99.90
21830;DHT22;11077;50.264;6.798;2022-08-01T01:06:26;17.80;99.90
21830;DHT22;11077;50.264;6.798;2022-08-01T01:09:02;17.70;99.90
21830;DHT22;11077;50.264;6.798;2022-08-01T01:11:39;17.70;99.90
21830;DHT22;11077;50.264;6.798;2022-08-01T01:14:21;17.70;99.90
21830;DHT22;11077;50.264;6.798;2022-08-01T01:16:53;17.70;99.90
21830;DHT22;11077;50.264;6.798;2022-08-01T01:19:24;17.70;99.90
21830;DHT22;11077;50.264;6.798;2022-08-01T01:22:17;17.60;99.90
21830;DHT22;11077;50.264;6.798;2022-08-01T01:24:58;17.50;99.90
21830;DHT22;11077;50.264;6.798;2022-08-01T01:27:36;17.50;99.90
21830;DHT22;11077;50.264;6.798;2022-08-01T01:30:08;17.40;99.90
21830;DHT22;11077;50.264;6.798;2022-08-01T01:32:39;17.40;99.90
21830;DHT22;11077;50.264;6.798;2022-08-01T01:35:10;17.40;99.90
21830;DHT22;11077;50.264;6.798;2022-08-01T01:37:42;17.40;99.90
21830;DHT22;11077;50.264;6.798;2022-08-01T01:40:12;17.30;99.90
21830;DHT22;11077;50.264;6.798;2022-08-01T01:42:41;17.40;99.90
21830;DHT22;11077;50.264;6.798;2022-08-01T01:45:12;17.40;99.90
21830;DHT22;11077;50.264;6.798;2022-08-01T01:47:41;17.40;99.90
21830;DHT22;11077;50.264;6.798;2022-08-01T01:50:11;17.50;99.90
21830;DHT22;11077;50.264;6.798;2022-08-01T01:52:39;17.50;99.90
21830;DHT22;11077;50.264;6.798;2022-08-01T01:55:08;17.40;99.90
21830;DHT22;11077;50.264;6.798;2022-08-01T01:57:39;17.50;99.90
21830;DHT22;11077;50.264;6.798;2022-08-01T02:00:08;17.50;99.90
21830;DHT22;11077;50.264;6.798;2022-08-01T02:02:39;17.50;99.90
21830;DHT22;11077;50.264;6.798;2022-08-01T02:05:10;17.50;99.90
21830;DHT22;11077;50.264;6.798;2022-08-01T02:07:39;17.50;99.90
21830;DHT22;11077;50.264;6.798;2022-08-01T02:10:10;17.40;99.90
21830;DHT22;11077;50.264;6.798;2022-08-01T02:12:40;17.40;99.90
21830;DHT22;11077;50.264;6.798;2022-08-01T02:15:10;17.40;99.90
21830;DHT22;11077;50.264;6.798;2022-08-01T02:17:42;17.40;99.90
21830;DHT22;11077;50.264;6.798;2022-08-01T02:20:11;17.40;99.90
21830;DHT22;11077;50.264;6.798;2022-08-01T02:22:42;17.40;99.90
21830;DHT22;11077;50.264;6.798;2022-08-01T02:25:15;17.40;99.90
21830;DHT22;11077;50.264;6.798;2022-08-01T02:27:47;17.50;99.90
21830;DHT22;11077;50.264;6.798;2022-08-01T02:30:16;17.50;99.90
21830;DHT22;11077;50.264;6.798;2022-08-01T02:32:48;17.50;99.90
21830;DHT22;11077;50.264;6.798;2022-08-01T02:35:20;17.50;99.90
21830;DHT22;11077;50.264;6.798;2022-08-01T02:37:50;17.50;99.90
21830;DHT22;11077;50.264;6.798;2022-08-01T02:40:19;17.50;99.90
21830;DHT22;11077;50.264;6.798;2022-08-01T02:42:49;17.50;99.90
21830;DHT22;11077;50.264;6.798;2022-08-01T02:45:18;17.50;99.90
21830;DHT22;11077;50.264;6.798;2022-08-01T02:47:47;17.50;99.90
21830;DHT22;11077;50.264;6.798;2022-08-01T02:50:16;17.50;99.90
21830;DHT22;11077;50.264;6.798;2022-08-01T02:52:47;17.50;99.90
21830;DHT22;11077;50.264;6.798;2022-08-01T02:55:16;17.60;99.90
21830;DHT22;11077;50.264;6.798;2022-08-01T02:57:44;17.50;99.90
21830;DHT22;11077;50.264;6.798;2022-08-01T03:00:13;17.50;99.90
21830;DHT22;11077;50.264;6.798;2022-08-01T03:02:41;17.50;99.90
21830;DHT22;11077;50.264;6.798;2022-08-01T03:05:12;17.50;99.90
21830;DHT22;11077;50.264;6.798;2022-08-01T03:07:41;17.50;99.90
21830;DHT22;11077;50.264;6.798;2022-08-01T03:10:10;17.40;99.90
21830;DHT22;11077;50.264;6.798;2022-08-01T03:12:38;17.50;99.90
21830;DHT22;11077;50.264;6.798;2022-08-01T03:15:09;17.40;99.90
21830;DHT22;11077;50.264;6.798;2022-08-01T03:17:39;17.40;99.90
21830;DHT22;11077;50.264;6.798;2022-08-01T03:20:11;17.50;99.90
21830;DHT22;11077;50.264;6.798;2022-08-01T03:22:40;17.50;99.90
21830;DHT22;11077;50.264;6.798;2022-08-01T03:25:10;17.50;99.90
21830;DHT22;11077;50.264;6.798;2022-08-01T03:27:40;17.50;99.90
21830;DHT22;11077;50.264;6.798;2022-08-01T03:30:10;17.50;99.90
21830;DHT22;11077;50.264;6.798;2022-08-01T03:32:38;17.50;99.90
21830;DHT22;11077;50.264;6.798;2022-08-01T03:35:06;17.50;99.90
21830;DHT22;11077;50.264;6.798;2022-08-01T03:37:41;17.50;99.90
21830;DHT22;11077;50.264;6.798;2022-08-01T03:40:13;17.50;99.90
21830;DHT22;11077;50.264;6.798;2022-08-01T03:42:44;17.50;99.90
21830;DHT22;11077;50.264;6.798;2022-08-01T03:45:19;17.50;99.90
21830;DHT22;11077;50.264;6.798;2022-08-01T03:47:54;17.50;99.90
21830;DHT22;11077;50.264;6.798;2022-08-01T03:50:23;17.50;99.90
21830;DHT22;11077;50.264;6.798;2022-08-01T03:52:55;17.50;99.90
21830;DHT22;11077;50.264;6.798;2022-08-01T03:55:25;17.50;99.90
21830;DHT22;11077;50.264;6.798;2022-08-01T03:57:53;17.60;99.90
21830;DHT22;11077;50.264;6.798;2022-08-01T04:00:20;17.60;99.90
21830;DHT22;11077;50.264;6.798;2022-08-01T04:02:48;17.50;99.90
21830;DHT22;11077;50.264;6.798;2022-08-01T04:05:16;17.60;99.90
21830;DHT22;11077;50.264;6.798;2022-08-01T04:07:46;17.60;99.90
21830;DHT22;11077;50.264;6.798;2022-08-01T04:10:15;17.60;99.90
21830;DHT22;11077;50.264;6.798;2022-08-01T04:12:43;17.60;99.90
21830;DHT22;11077;50.264;6.798;2022-08-01T04:15:11;17.60;99.90
21830;DHT22;11077;50.264;6.798;2022-08-01T04:17:40;17.60;99.90
21830;DHT22;11077;50.264;6.798;2022-08-01T04:20:08;17.60;99.90
21830;DHT22;11077;50.264;6.798;2022-08-01T04:22:36;17.60;99.90
21830;DHT22;11077;50.264;6.798;2022-08-01T04:25:09;17.60;99.90
21830;DHT22;11077;50.264;6.798;2022-08-01T04:27:43;17.60;99.90
21830;DHT22;11077;50.264;6.798;2022-08-01T04:30:13;17.60;99.90
21830;DHT22;11077;50.264;6.798;2022-08-01T04:32:44;17.70;99.90
21830;DHT22;11077;50.264;6.798;2022-08-01T04:35:13;17.60;99.90
21830;DHT22;11077;50.264;6.798;2022-08-01T04:37:44;17.60;99.90
21830;DHT22;11077;50.264;6.798;2022-08-01T04:40:14;17.70;99.90
21830;DHT22;11077;50.264;6.798;2022-08-01T04:42:45;17.60;99.90
21830;DHT22;11077;50.264;6.798;2022-08-01T04:45:14;17.70;99.90
21830;DHT22;11077;50.264;6.798;2022-08-01T04:47:43;17.60;99.90
21830;DHT22;11077;50.264;6.798;2022-08-01T04:50:11;17.70;99.90
21830;DHT22;11077;50.264;6.798;2022-08-01T04:52:39;17.70;99.90
21830;DHT22;11077;50.264;6.798;2022-08-01T04:55:08;17.70;99.90
21830;DHT22;11077;50.264;6.798;2022-08-01T04:57:39;17.70;99.90
21830;DHT22;11077;50.264;6.798;2022-08-01T05:00:10;17.70;99.90
21830;DHT22;11077;50.264;6.798;2022-08-01T05:02:38;17.80;99.90
21830;DHT22;11077;50.264;6.798;2022-08-01T05:05:06;17.70;99.90
21830;DHT22;11077;50.264;6.798;2022-08-01T05:07:36;17.80;99.90
21830;DHT22;11077;50.264;6.798;2022-08-01T05:10:05;17.70;99.90
21830;DHT22;11077;50.264;6.798;2022-08-01T05:12:45;17.80;99.90
21830;DHT22;11077;50.264;6.798;2022-08-01T05:15:14;17.80;99.90
21830;DHT22;11077;50.264;6.798;2022-08-01T05:18:07;17.80;99.90
21830;DHT22;11077;50.264;6.798;2022-08-01T05:20:36;17.80;99.90
21830;DHT22;11077;50.264;6.798;2022-08-01T05:23:04;17.90;99.90
21830;DHT22;11077;50.264;6.798;2022-08-01T05:25:32;17.90;99.90
21830;DHT22;11077;50.264;6.798;2022-08-01T05:28:00;17.90;99.90
21830;DHT22;11077;50.264;6.798;2022-08-01T05:30:39;17.90;99.90
21830;DHT22;11077;50.264;6.798;2022-08-01T05:33:32;17.90;99.90
21830;DHT22;11077;50.264;6.798;2022-08-01T05:36:00;17.90;99.90
21830;DHT22;11077;50.264;6.798;2022-08-01T05:38:27;17.90;99.90
21830;DHT22;11077;50.264;6.798;2022-08-01T05:40:54;17.90;99.90
21830;DHT22;11077;50.264;6.798;2022-08-01T05:43:21;17.90;99.90
21830;DHT22;11077;50.264;6.798;2022-08-01T05:45:50;17.90;99.90
21830;DHT22;11077;50.264;6.798;2022-08-01T05:48:18;17.90;99.90
21830;DHT22;11077;50.264;6.798;2022-08-01T05:50:45;17.90;99.90
21830;DHT22;11077;50.264;6.798;2022-08-01T05:53:13;17.90;99.90
21830;DHT22;11077;50.264;6.798;2022-08-01T05:55:40;17.90;99.90
21830;DHT22;11077;50.264;6.798;2022-08-01T05:58:11;18.00;99.90
21830;DHT22;11077;50.264;6.798;2022-08-01T06:00:51;18.00;99.90
21830;DHT22;11077;50.264;6.798;2022-08-01T06:03:19;18.00;99.90
21830;DHT22;11077;50.264;6.798;2022-08-01T06:05:50;18.00;99.90
21830;DHT22;11077;50.264;6.798;2022-08-01T06:08:19;18.20;99.90
21830;DHT22;11077;50.264;6.798;2022-08-01T06:14:41;18.10;99.90
21830;DHT22;11077;50.264;6.798;2022-08-01T06:17:11;18.20;99.90
21830;DHT22;11077;50.264;6.798;2022-08-01T06:19:48;18.20;99.90
21830;DHT22;11077;50.264;6.798;2022-08-01T06:22:33;18.30;99.90
21830;DHT22;11077;50.264;6.798;2022-08-01T06:25:01;18.30;99.90
21830;DHT22;11077;50.264;6.798;2022-08-01T06:27:36;18.30;99.90
21830;DHT22;11077;50.264;6.798;2022-08-01T06:30:05;18.30;99.90
21830;DHT22;11077;50.264;6.798;2022-08-01T06:32:35;18.30;99.90
21830;DHT22;11077;50.264;6.798;2022-08-01T06:35:13;18.30;99.90
21830;DHT22;11077;50.264;6.798;2022-08-01T06:37:49;18.30;99.90
21830;DHT22;11077;50.264;6.798;2022-08-01T06:40:24;18.40;99.90
21830;DHT22;11077;50.264;6.798;2022-08-01T06:42:52;18.40;99.90
21830;DHT22;11077;50.264;6.798;2022-08-01T06:45:20;18.40;99.90
21830;DHT22;11077;50.264;6.798;2022-08-01T06:47:52;18.50;99.90
21830;DHT22;11077;50.264;6.798;2022-08-01T06:50:19;18.50;99.90
21830;DHT22;11077;50.264;6.798;2022-08-01T06:52:47;18.60;99.90
21830;DHT22;11077;50.264;6.798;2022-08-01T06:55:14;18.60;99.90
21830;DHT22;11077;50.264;6.798;2022-08-01T06:57:46;18.70;99.90
21830;DHT22;11077;50.264;6.798;2022-08-01T07:00:14;18.70;99.90
21830;DHT22;11077;50.264;6.798;2022-08-01T07:02:44;18.80;99.90
21830;DHT22;11077;50.264;6.798;2022-08-01T07:05:13;18.90;99.90
21830;DHT22;11077;50.264;6.798;2022-08-01T07:07:41;19.00;99.90
21830;DHT22;11077;50.264;6.798;2022-08-01T07:10:09;19.10;99.90
21830;DHT22;11077;50.264;6.798;2022-08-01T07:12:37;19.20;99.90
21830;DHT22;11077;50.264;6.798;2022-08-01T07:15:07;19.20;99.90
21830;DHT22;11077;50.264;6.798;2022-08-01T07:17:37;19.20;99.90
21830;DHT22;11077;50.264;6.798;2022-08-01T07:20:07;19.20;99.90
21830;DHT22;11077;50.264;6.798;2022-08-01T07:22:36;19.20;99.90
21830;DHT22;11077;50.264;6.798;2022-08-01T07:25:07;19.20;99.90
21830;DHT22;11077;50.264;6.798;2022-08-01T07:27:35;19.20;99.90
21830;DHT22;11077;50.264;6.798;2022-08-01T07:30:04;19.20;99.90
21830;DHT22;11077;50.264;6.798;2022-08-01T07:32:32;19.20;99.90
21830;DHT22;11077;50.264;6.798;2022-08-01T07:35:01;19.30;99.90
21830;DHT22;11077;50.264;6.798;2022-08-01T07:37:28;19.30;99.90
21830;DHT22;11077;50.264;6.798;2022-08-01T07:39:56;19.40;99.90
21830;DHT22;11077;50.264;6.798;2022-08-01T07:42:24;19.40;99.90
21830;DHT22;11077;50.264;6.798;2022-08-01T07:44:51;19.50;99.90
21830;DHT22;11077;50.264;6.798;2022-08-01T07:47:24;19.50;99.90
21830;DHT22;11077;50.264;6.798;2022-08-01T07:49:51;19.60;99.90
21830;DHT22;11077;50.264;6.798;2022-08-01T07:52:19;19.60;99.90
21830;DHT22;11077;50.264;6.798;2022-08-01T07:54:48;19.70;99.90
21830;DHT22;11077;50.264;6.798;2022-08-01T07:57:18;19.70;99.90
21830;DHT22;11077;50.264;6.798;2022-08-01T07:59:45;19.70;99.90
21830;DHT22;11077;50.264;6.798;2022-08-01T08:02:12;19.80;99.90
21830;DHT22;11077;50.264;6.798;2022-08-01T08:04:40;19.80;99.90
21830;DHT22;11077;50.264;6.798;2022-08-01T08:07:07;19.80;99.90
21830;DHT22;11077;50.264;6.798;2022-08-01T08:09:35;19.80;99.90
21830;DHT22;11077;50.264;6.798;2022-08-01T08:12:03;19.80;99.90
21830;DHT22;11077;50.264;6.798;2022-08-01T08:14:32;19.80;99.90
21830;DHT22;11077;50.264;6.798;2022-08-01T08:16:59;19.90;99.90
21830;DHT22;11077;50.264;6.798;2022-08-01T08:19:27;19.80;99.90
21830;DHT22;11077;50.264;6.798;2022-08-01T08:21:54;19.70;99.90
21830;DHT22;11077;50.264;6.798;2022-08-01T08:24:22;19.60;99.90
21830;DHT22;11077;50.264;6.798;2022-08-01T08:26:54;19.70;99.90
21830;DHT22;11077;50.264;6.798;2022-08-01T08:29:23;19.80;99.90
21830;DHT22;11077;50.264;6.798;2022-08-01T08:32:08;19.80;99.90
21830;DHT22;11077;50.264;6.798;2022-08-01T08:34:36;19.80;99.90
21830;DHT22;11077;50.264;6.798;2022-08-01T08:37:03;19.80;99.90
21830;DHT22;11077;50.264;6.798;2022-08-01T08:39:30;19.70;99.90
21830;DHT22;11077;50.264;6.798;2022-08-01T08:41:59;19.70;99.90
21830;DHT22;11077;50.264;6.798;2022-08-01T08:44:28;19.60;99.90
21830;DHT22;11077;50.264;6.798;2022-08-01T08:46:58;19.50;99.90
21830;DHT22;11077;50.264;6.798;2022-08-01T08:49:28;19.50;99.90
21830;DHT22;11077;50.264;6.798;2022-08-01T08:51:59;19.60;99.90
21830;DHT22;11077;50.264;6.798;2022-08-01T08:54:28;19.60;99.90
21830;DHT22;11077;50.264;6.798;2022-08-01T08:56:56;19.70;99.90
21830;DHT22;11077;50.264;6.798;2022-08-01T08:59:25;19.80;99.90
21830;DHT22;11077;50.264;6.798;2022-08-01T09:01:52;19.90;99.90
21830;DHT22;11077;50.264;6.798;2022-08-01T09:04:22;20.00;99.90
21830;DHT22;11077;50.264;6.798;2022-08-01T09:06:49;20.10;99.90
21830;DHT22;11077;50.264;6.798;2022-08-01T09:09:17;20.20;99.90
21830;DHT22;11077;50.264;6.798;2022-08-01T09:11:44;20.40;99.90
21830;DHT22;11077;50.264;6.798;2022-08-01T09:14:13;20.60;99.90
21830;DHT22;11077;50.264;6.798;2022-08-01T09:16:57;20.70;99.90
21830;DHT22;11077;50.264;6.798;2022-08-01T09:19:34;20.90;99.90
21830;DHT22;11077;50.264;6.798;2022-08-01T09:22:04;21.00;99.90
21830;DHT22;11077;50.264;6.798;2022-08-01T09:24:32;21.20;99.90
21830;DHT22;11077;50.264;6.798;2022-08-01T09:27:01;21.30;99.90
21830;DHT22;11077;50.264;6.798;2022-08-01T09:29:42;21.50;99.90
21830;DHT22;11077;50.264;6.798;2022-08-01T09:32:10;21.60;99.90
21830;DHT22;11077;50.264;6.798;2022-08-01T09:34:39;21.70;99.90
21830;DHT22;11077;50.264;6.798;2022-08-01T09:37:06;21.90;99.90
21830;DHT22;11077;50.264;6.798;2022-08-01T09:39:35;22.10;99.90
21830;DHT22;11077;50.264;6.798;2022-08-01T09:42:19;22.40;99.90
21830;DHT22;11077;50.264;6.798;2022-08-01T09:44:47;22.70;99.90
21830;DHT22;11077;50.264;6.798;2022-08-01T09:47:14;22.90;99.90
21830;DHT22;11077;50.264;6.798;2022-08-01T09:49:44;23.00;99.90
21830;DHT22;11077;50.264;6.798;2022-08-01T09:52:15;23.20;99.90
21830;DHT22;11077;50.264;6.798;2022-08-01T09:54:51;23.40;99.90
21830;DHT22;11077;50.264;6.798;2022-08-01T09:57:19;23.50;99.90
21830;DHT22;11077;50.264;6.798;2022-08-01T09:59:48;23.60;99.90
21830;DHT22;11077;50.264;6.798;2022-08-01T10:02:29;23.70;99.90
21830;DHT22;11077;50.264;6.798;2022-08-01T10:04:59;23.70;99.90
21830;DHT22;11077;50.264;6.798;2022-08-01T10:07:27;23.90;99.90
21830;DHT22;11077;50.264;6.798;2022-08-01T10:09:54;24.10;99.90
21830;DHT22;11077;50.264;6.798;2022-08-01T10:12:22;24.30;99.90
21830;DHT22;11077;50.264;6.798;2022-08-01T10:14:51;24.40;99.90
21830;DHT22;11077;50.264;6.798;2022-08-01T10:17:25;24.50;99.90
21830;DHT22;11077;50.264;6.798;2022-08-01T10:19:52;24.30;99.90
21830;DHT22;11077;50.264;6.798;2022-08-01T10:22:24;24.20;99.90
21830;DHT22;11077;50.264;6.798;2022-08-01T10:24:55;24.20;99.90
21830;DHT22;11077;50.264;6.798;2022-08-01T10:27:25;24.20;99.90
21830;DHT22;11077;50.264;6.798;2022-08-01T10:29:56;24.10;99.90
21830;DHT22;11077;50.264;6.798;2022-08-01T10:32:26;23.80;99.90
21830;DHT22;11077;50.264;6.798;2022-08-01T10:34:54;23.60;99.90
21830;DHT22;11077;50.264;6.798;2022-08-01T10:37:24;23.50;99.90
21830;DHT22;11077;50.264;6.798;2022-08-01T10:39:52;23.40;99.90
21830;DHT22;11077;50.264;6.798;2022-08-01T10:42:19;23.40;99.90
21830;DHT22;11077;50.264;6.798;2022-08-01T10:44:48;23.10;99.90
21830;DHT22;11077;50.264;6.798;2022-08-01T10:47:18;23.00;99.90
21830;DHT22;11077;50.264;6.798;2022-08-01T10:49:51;22.90;99.90
21830;DHT22;11077;50.264;6.798;2022-08-01T10:52:20;22.70;99.90
21830;DHT22;11077;50.264;6.798;2022-08-01T10:55:02;22.50;99.90
21830;DHT22;11077;50.264;6.798;2022-08-01T10:57:42;22.30;99.90
21830;DHT22;11077;50.264;6.798;2022-08-01T11:00:16;22.10;99.90
21830;DHT22;11077;50.264;6.798;2022-08-01T11:02:58;21.80;99.90
21830;DHT22;11077;50.264;6.798;2022-08-01T11:05:31;21.60;99.90
21830;DHT22;11077;50.264;6.798;2022-08-01T11:08:02;21.60;99.90
21830;DHT22;11077;50.264;6.798;2022-08-01T11:10:37;21.70;99.90
21830;DHT22;11077;50.264;6.798;2022-08-01T11:13:05;21.80;99.90
21830;DHT22;11077;50.264;6.798;2022-08-01T11:15:35;21.80;99.90
21830;DHT22;11077;50.264;6.798;2022-08-01T11:18:03;21.90;99.90
21830;DHT22;11077;50.264;6.798;2022-08-01T11:20:56;22.00;99.90
21830;DHT22;11077;50.264;6.798;2022-08-01T11:23:25;22.20;99.90
21830;DHT22;11077;50.264;6.798;2022-08-01T11:26:22;22.20;99.90
21830;DHT22;11077;50.264;6.798;2022-08-01T11:29:16;22.20;99.90
21830;DHT22;11077;50.264;6.798;2022-08-01T11:31:44;22.30;99.90
21830;DHT22;11077;50.264;6.798;2022-08-01T11:34:11;22.30;99.90
21830;DHT22;11077;50.264;6.798;2022-08-01T11:36:39;22.40;99.90
21830;DHT22;11077;50.264;6.798;2022-08-01T11:39:16;22.40;99.90
21830;DHT22;11077;50.264;6.798;2022-08-01T11:41:47;22.40;99.90
21830;DHT22;11077;50.264;6.798;2022-08-01T11:44:17;22.10;99.90
21830;DHT22;11077;50.264;6.798;2022-08-01T11:46:46;22.20;99.90
21830;DHT22;11077;50.264;6.798;2022-08-01T11:49:28;22.10;99.90
21830;DHT22;11077;50.264;6.798;2022-08-01T11:52:00;22.10;99.90
21830;DHT22;11077;50.264;6.798;2022-08-01T11:54:28;22.10;99.90
21830;DHT22;11077;50.264;6.798;2022-08-01T11:57:00;22.20;99.90
21830;DHT22;11077;50.264;6.798;2022-08-01T11:59:28;22.20;99.90
21830;DHT22;11077;50.264;6.798;2022-08-01T12:01:55;22.40;99.90
21830;DHT22;11077;50.264;6.798;2022-08-01T12:04:22;22.40;99.90
21830;DHT22;11077;50.264;6.798;2022-08-01T12:06:50;22.50;99.90
21830;DHT22;11077;50.264;6.798;2022-08-01T12:09:21;22.60;99.90
21830;DHT22;11077;50.264;6.798;2022-08-01T12:11:50;22.60;99.90
21830;DHT22;11077;50.264;6.798;2022-08-01T12:14:21;22.60;99.90
21830;DHT22;11077;50.264;6.798;2022-08-01T12:16:51;22.40;99.90
21830;DHT22;11077;50.264;6.798;2022-08-01T12:19:23;22.30;99.90
21830;DHT22;11077;50.264;6.798;2022-08-01T12:22:08;22.30;99.90
21830;DHT22;11077;50.264;6.798;2022-08-01T12:24:37;22.40;99.90
21830;DHT22;11077;50.264;6.798;2022-08-01T12:27:05;22.30;99.90
21830;DHT22;11077;50.264;6.798;2022-08-01T12:29:36;22.20;99.90
21830;DHT22;11077;50.264;6.798;2022-08-01T12:32:19;22.20;99.90
21830;DHT22;11077;50.264;6.798;2022-08-01T12:34:47;22.20;99.90
21830;DHT22;11077;50.264;6.798;2022-08-01T12:37:15;22.20;99.90
21830;DHT22;11077;50.264;6.798;2022-08-01T12:39:43;22.20;99.90
21830;DHT22;11077;50.264;6.798;2022-08-01T12:42:12;22.10;99.90
21830;DHT22;11077;50.264;6.798;2022-08-01T12:44:43;22.00;99.90
21830;DHT22;11077;50.264;6.798;2022-08-01T12:47:11;21.80;99.90
21830;DHT22;11077;50.264;6.798;2022-08-01T12:49:41;21.60;99.90
21830;DHT22;11077;50.264;6.798;2022-08-01T12:52:10;21.50;99.90
21830;DHT22;11077;50.264;6.798;2022-08-01T12:55:04;21.50;99.90
21830;DHT22;11077;50.264;6.798;2022-08-01T13:00:50;21.50;99.90
21830;DHT22;11077;50.264;6.798;2022-08-01T13:03:29;21.50;99.90
21830;DHT22;11077;50.264;6.798;2022-08-01T13:05:57;21.40;99.90
21830;DHT22;11077;50.264;6.798;2022-08-01T13:08:29;21.50;99.90
21830;DHT22;11077;50.264;6.798;2022-08-01T13:11:08;21.50;99.90
21830;DHT22;11077;50.264;6.798;2022-08-01T13:13:47;21.70;99.90
21830;DHT22;11077;50.264;6.798;2022-08-01T13:16:18;21.60;99.90
21830;DHT22;11077;50.264;6.798;2022-08-01T13:18:49;21.70;99.90
21830;DHT22;11077;50.264;6.798;2022-08-01T13:21:18;21.80;99.90
21830;DHT22;11077;50.264;6.798;2022-08-01T13:24:01;21.80;99.90
21830;DHT22;11077;50.264;6.798;2022-08-01T13:26:41;21.80;99.90
21830;DHT22;11077;50.264;6.798;2022-08-01T13:29:11;21.90;99.90
21830;DHT22;11077;50.264;6.798;2022-08-01T13:31:41;21.80;99.90
21830;DHT22;11077;50.264;6.798;2022-08-01T13:34:10;21.50;99.90
21830;DHT22;11077;50.264;6.798;2022-08-01T13:36:38;21.30;99.90
21830;DHT22;11077;50.264;6.798;2022-08-01T13:39:10;21.30;99.90
21830;DHT22;11077;50.264;6.798;2022-08-01T13:41:55;21.30;99.90
21830;DHT22;11077;50.264;6.798;2022-08-01T13:44:26;21.20;99.90
21830;DHT22;11077;50.264;6.798;2022-08-01T13:46:59;21.10;99.90
21830;DHT22;11077;50.264;6.798;2022-08-01T13:49:26;20.90;99.90
21830;DHT22;11077;50.264;6.798;2022-08-01T13:51:54;20.90;99.90
21830;DHT22;11077;50.264;6.798;2022-08-01T13:54:21;20.90;99.90
21830;DHT22;11077;50.264;6.798;2022-08-01T13:56:49;20.90;99.90
21830;DHT22;11077;50.264;6.798;2022-08-01T13:59:17;20.90;99.90
21830;DHT22;11077;50.264;6.798;2022-08-01T14:01:45;20.90;99.90
21830;DHT22;11077;50.264;6.798;2022-08-01T14:04:17;20.80;99.90
21830;DHT22;11077;50.264;6.798;2022-08-01T14:06:45;20.80;99.90
21830;DHT22;11077;50.264;6.798;2022-08-01T14:09:12;20.80;99.90
21830;DHT22;11077;50.264;6.798;2022-08-01T14:11:42;20.90;99.90
21830;DHT22;11077;50.264;6.798;2022-08-01T14:14:10;21.10;99.90
21830;DHT22;11077;50.264;6.798;2022-08-01T14:16:37;21.20;99.90
21830;DHT22;11077;50.264;6.798;2022-08-01T14:19:05;21.30;99.90
21830;DHT22;11077;50.264;6.798;2022-08-01T14:21:34;21.40;99.90
21830;DHT22;11077;50.264;6.798;2022-08-01T14:24:02;21.40;99.90
21830;DHT22;11077;50.264;6.798;2022-08-01T14:26:29;21.40;99.90
21830;DHT22;11077;50.264;6.798;2022-08-01T14:28:57;21.40;99.90
21830;DHT22;11077;50.264;6.798;2022-08-01T14:31:24;21.40;99.90
21830;DHT22;11077;50.264;6.798;2022-08-01T14:33:51;21.60;99.90
21830;DHT22;11077;50.264;6.798;2022-08-01T14:36:19;21.60;99.90
21830;DHT22;11077;50.264;6.798;2022-08-01T14:38:48;21.60;99.90
21830;DHT22;11077;50.264;6.798;2022-08-01T14:41:17;21.80;99.90
21830;DHT22;11077;50.264;6.798;2022-08-01T14:43:45;22.00;99.90
21830;DHT22;11077;50.264;6.798;2022-08-01T14:46:14;22.20;99.90
21830;DHT22;11077;50.264;6.798;2022-08-01T14:48:45;22.30;99.90
21830;DHT22;11077;50.264;6.798;2022-08-01T14:51:14;22.40;99.90
21830;DHT22;11077;50.264;6.798;2022-08-01T14:53:42;22.50;99.90
21830;DHT22;11077;50.264;6.798;2022-08-01T14:56:11;22.50;99.90
21830;DHT22;11077;50.264;6.798;2022-08-01T14:58:45;22.60;99.90
21830;DHT22;11077;50.264;6.798;2022-08-01T15:01:12;22.60;99.90
21830;DHT22;11077;50.264;6.798;2022-08-01T15:03:39;22.60;99.90
21830;DHT22;11077;50.264;6.798;2022-08-01T15:06:06;22.60;99.90
21830;DHT22;11077;50.264;6.798;2022-08-01T15:08:37;22.60;99.90
21830;DHT22;11077;50.264;6.798;2022-08-01T15:11:04;22.60;99.90
21830;DHT22;11077;50.264;6.798;2022-08-01T15:13:33;22.50;99.90
21830;DHT22;11077;50.264;6.798;2022-08-01T15:16:01;22.50;99.90
21830;DHT22;11077;50.264;6.798;2022-08-01T15:18:28;22.40;99.90
21830;DHT22;11077;50.264;6.798;2022-08-01T15:20:55;22.40;99.90
21830;DHT22;11077;50.264;6.798;2022-08-01T15:23:23;22.30;99.90
21830;DHT22;11077;50.264;6.798;2022-08-01T15:25:51;22.30;99.90
21830;DHT22;11077;50.264;6.798;2022-08-01T15:28:18;22.30;99.90
21830;DHT22;11077;50.264;6.798;2022-08-01T15:30:48;22.30;99.90
21830;DHT22;11077;50.264;6.798;2022-08-01T15:33:15;22.30;99.90
21830;DHT22;11077;50.264;6.798;2022-08-01T15:35:43;22.40;99.90
21830;DHT22;11077;50.264;6.798;2022-08-01T15:38:10;22.40;99.90
21830;DHT22;11077;50.264;6.798;2022-08-01T15:40:41;22.40;99.90
21830;DHT22;11077;50.264;6.798;2022-08-01T15:43:12;22.40;99.90
21830;DHT22;11077;50.264;6.798;2022-08-01T15:45:40;22.40;99.90
21830;DHT22;11077;50.264;6.798;2022-08-01T15:48:09;22.40;99.90
21830;DHT22;11077;50.264;6.798;2022-08-01T15:50:36;22.50;99.90
21830;DHT22;11077;50.264;6.798;2022-08-01T15:53:04;22.50;99.90
21830;DHT22;11077;50.264;6.798;2022-08-01T15:55:34;22.50;99.90
21830;DHT22;11077;50.264;6.798;2022-08-01T15:58:03;22.40;99.90